sensor_id;sensor_type;location;lat;lon;timestamp;temperature;humidity
5138;DHT22;53959;53.626;11.410;2022-08-16T00:01:46;19.10;99.90
5138;DHT22;53959;53.626;11.410;2022-08-16T00:04:34;19.10;99.90
5138;DHT22;53959;53.626;11.410;2022-08-16T00:07:00;19.10;99.90
5138;DHT22;53959;53.626;11.410;2022-08-16T00:09:25;19.00;99.90
5138;DHT22;53959;53.626;11.410;2022-08-16T00:11:51;19.10;99.90
5138;DHT22;53959;53.626;11.410;2022-08-16T00:14:22;19.00;99.90
5138;DHT22;53959;53.626;11.410;2022-08-16T00:16:49;19.00;99.90
5138;DHT22;53959;53.626;11.410;2022-08-16T00:19:21;19.00;99.90
5138;DHT22;53959;53.626;11.410;2022-08-16T00:21:47;19.00;99.90
5138;DHT22;53959;53.626;11.410;2022-08-16T00:24:14;19.00;99.90
5138;DHT22;53959;53.626;11.410;2022-08-16T00:26:42;19.00;99.90
5138;DHT22;53959;53.626;11.410;2022-08-16T00:29:08;19.00;99.90
5138;DHT22;53959;53.626;11.410;2022-08-16T00:31:34;19.00;99.90
5138;DHT22;53959;53.626;11.410;2022-08-16T00:34:00;18.90;99.90
5138;DHT22;53959;53.626;11.410;2022-08-16T00:36:26;19.00;99.90
5138;DHT22;53959;53.626;11.410;2022-08-16T00:38:52;19.00;99.90
5138;DHT22;53959;53.626;11.410;2022-08-16T00:41:17;18.90;99.90
5138;DHT22;53959;53.626;11.410;2022-08-16T00:43:43;19.00;99.90
5138;DHT22;53959;53.626;11.410;2022-08-16T00:46:33;19.00;99.90
5138;DHT22;53959;53.626;11.410;2022-08-16T00:49:04;19.00;99.90
5138;DHT22;53959;53.626;11.410;2022-08-16T00:51:31;18.90;99.90
5138;DHT22;53959;53.626;11.410;2022-08-16T00:53:56;19.00;99.90
5138;DHT22;53959;53.626;11.410;2022-08-16T00:56:26;18.90;99.90
5138;DHT22;53959;53.626;11.410;2022-08-16T00:58:52;18.90;99.90
5138;DHT22;53959;53.626;11.410;2022-08-16T01:01:18;18.90;99.90
5138;DHT22;53959;53.626;11.410;2022-08-16T01:03:49;18.90;99.90
5138;DHT22;53959;53.626;11.410;2022-08-16T01:06:16;18.90;99.90
5138;DHT22;53959;53.626;11.410;2022-08-16T01:08:45;18.90;99.90
5138;DHT22;53959;53.626;11.410;2022-08-16T01:11:12;18.90;99.90
5138;DHT22;53959;53.626;11.410;2022-08-16T01:13:38;18.90;99.90
5138;DHT22;53959;53.626;11.410;2022-08-16T01:16:13;19.00;99.90
5138;DHT22;53959;53.626;11.410;2022-08-16T01:18:49;19.00;99.90
5138;DHT22;53959;53.626;11.410;2022-08-16T01:21:30;19.10;99.90
5138;DHT22;53959;53.626;11.410;2022-08-16T01:24:27;19.10;99.90
5138;DHT22;53959;53.626;11.410;2022-08-16T01:26:59;19.20;99.90
5138;DHT22;53959;53.626;11.410;2022-08-16T01:29:31;19.10;99.90
5138;DHT22;53959;53.626;11.410;2022-08-16T01:31:58;19.20;99.90
5138;DHT22;53959;53.626;11.410;2022-08-16T01:34:23;19.10;99.90
5138;DHT22;53959;53.626;11.410;2022-08-16T01:36:57;19.20;99.90
5138;DHT22;53959;53.626;11.410;2022-08-16T01:39:22;19.20;99.90
5138;DHT22;53959;53.626;11.410;2022-08-16T01:41:48;19.20;99.90
5138;DHT22;53959;53.626;11.410;2022-08-16T01:44:14;19.20;99.90
5138;DHT22;53959;53.626;11.410;2022-08-16T01:46:45;19.20;99.90
5138;DHT22;53959;53.626;11.410;2022-08-16T01:49:18;19.10;99.90
5138;DHT22;53959;53.626;11.410;2022-08-16T01:51:47;19.20;99.90
5138;DHT22;53959;53.626;11.410;2022-08-16T01:54:14;19.20;99.90
5138;DHT22;53959;53.626;11.410;2022-08-16T01:56:40;19.20;99.90
5138;DHT22;53959;53.626;11.410;2022-08-16T01:59:10;19.20;99.90
5138;DHT22;53959;53.626;11.410;2022-08-16T02:01:36;19.20;99.90
5138;DHT22;53959;53.626;11.410;2022-08-16T02:04:02;19.10;99.90
5138;DHT22;53959;53.626;11.410;2022-08-16T02:06:28;19.20;99.90
5138;DHT22;53959;53.626;11.410;2022-08-16T02:08:54;19.20;99.90
5138;DHT22;53959;53.626;11.410;2022-08-16T02:11:23;19.10;99.90
5138;DHT22;53959;53.626;11.410;2022-08-16T02:13:48;19.00;99.90
5138;DHT22;53959;53.626;11.410;2022-08-16T02:16:14;19.10;99.90
5138;DHT22;53959;53.626;11.410;2022-08-16T02:18:40;19.10;99.90
5138;DHT22;53959;53.626;11.410;2022-08-16T02:21:07;19.20;99.90
5138;DHT22;53959;53.626;11.410;2022-08-16T02:23:35;19.10;99.90
5138;DHT22;53959;53.626;11.410;2022-08-16T02:26:02;19.20;99.90
5138;DHT22;53959;53.626;11.410;2022-08-16T02:28:27;19.20;99.90
5138;DHT22;53959;53.626;11.410;2022-08-16T02:30:55;19.20;99.90
5138;DHT22;53959;53.626;11.410;2022-08-16T02:33:23;19.10;99.90
5138;DHT22;53959;53.626;11.410;2022-08-16T02:35:49;19.10;99.90
5138;DHT22;53959;53.626;11.410;2022-08-16T02:38:14;19.10;99.90
5138;DHT22;53959;53.626;11.410;2022-08-16T02:40:40;19.10;99.90
5138;DHT22;53959;53.626;11.410;2022-08-16T02:43:06;19.10;99.90
5138;DHT22;53959;53.626;11.410;2022-08-16T02:45:32;19.10;99.90
5138;DHT22;53959;53.626;11.410;2022-08-16T02:47:57;19.10;99.90
5138;DHT22;53959;53.626;11.410;2022-08-16T02:50:24;19.10;99.90
5138;DHT22;53959;53.626;11.410;2022-08-16T02:52:50;19.10;99.90
5138;DHT22;53959;53.626;11.410;2022-08-16T02:55:16;19.10;99.90
5138;DHT22;53959;53.626;11.410;2022-08-16T02:57:43;19.20;99.90
5138;DHT22;53959;53.626;11.410;2022-08-16T03:00:12;19.20;99.90
5138;DHT22;53959;53.626;11.410;2022-08-16T03:02:39;19.20;99.90
5138;DHT22;53959;53.626;11.410;2022-08-16T03:05:06;19.20;99.90
5138;DHT22;53959;53.626;11.410;2022-08-16T03:07:32;19.20;99.90
5138;DHT22;53959;53.626;11.410;2022-08-16T03:09:58;19.20;99.90
5138;DHT22;53959;53.626;11.410;2022-08-16T03:12:23;19.20;99.90
5138;DHT22;53959;53.626;11.410;2022-08-16T03:14:49;19.30;99.90
5138;DHT22;53959;53.626;11.410;2022-08-16T03:17:15;19.30;99.90
5138;DHT22;53959;53.626;11.410;2022-08-16T03:19:41;19.30;99.90
5138;DHT22;53959;53.626;11.410;2022-08-16T03:22:06;19.40;99.90
5138;DHT22;53959;53.626;11.410;2022-08-16T03:24:32;19.40;99.90
5138;DHT22;53959;53.626;11.410;2022-08-16T03:27:01;19.30;99.90
5138;DHT22;53959;53.626;11.410;2022-08-16T03:29:30;19.30;99.90
5138;DHT22;53959;53.626;11.410;2022-08-16T03:31:59;19.30;99.90
5138;DHT22;53959;53.626;11.410;2022-08-16T03:34:26;19.30;99.90
5138;DHT22;53959;53.626;11.410;2022-08-16T03:36:51;19.30;99.90
5138;DHT22;53959;53.626;11.410;2022-08-16T03:39:17;19.40;99.90
5138;DHT22;53959;53.626;11.410;2022-08-16T03:41:43;19.30;99.90
5138;DHT22;53959;53.626;11.410;2022-08-16T03:44:08;19.20;99.90
5138;DHT22;53959;53.626;11.410;2022-08-16T03:46:34;19.20;99.90
5138;DHT22;53959;53.626;11.410;2022-08-16T03:49:00;19.20;99.90
5138;DHT22;53959;53.626;11.410;2022-08-16T03:51:26;19.20;99.90
5138;DHT22;53959;53.626;11.410;2022-08-16T03:53:52;19.20;99.90
5138;DHT22;53959;53.626;11.410;2022-08-16T03:56:18;19.20;99.90
5138;DHT22;53959;53.626;11.410;2022-08-16T03:58:43;19.20;99.90
5138;DHT22;53959;53.626;11.410;2022-08-16T04:01:09;19.20;99.90
5138;DHT22;53959;53.626;11.410;2022-08-16T04:03:35;19.10;99.90
5138;DHT22;53959;53.626;11.410;2022-08-16T04:06:00;19.20;99.90
5138;DHT22;53959;53.626;11.410;2022-08-16T04:08:26;19.30;99.90
5138;DHT22;53959;53.626;11.410;2022-08-16T04:10:53;19.20;99.90
5138;DHT22;53959;53.626;11.410;2022-08-16T04:13:19;19.20;99.90
5138;DHT22;53959;53.626;11.410;2022-08-16T04:15:45;19.20;99.90
5138;DHT22;53959;53.626;11.410;2022-08-16T04:18:12;19.20;99.90
5138;DHT22;53959;53.626;11.410;2022-08-16T04:20:37;19.20;99.90
5138;DHT22;53959;53.626;11.410;2022-08-16T04:23:03;19.20;99.90
5138;DHT22;53959;53.626;11.410;2022-08-16T04:25:29;19.20;99.90
5138;DHT22;53959;53.626;11.410;2022-08-16T04:27:55;19.20;99.90
5138;DHT22;53959;53.626;11.410;2022-08-16T04:30:22;19.20;99.90
5138;DHT22;53959;53.626;11.410;2022-08-16T04:32:48;19.20;99.90
5138;DHT22;53959;53.626;11.410;2022-08-16T04:35:16;19.20;99.90
5138;DHT22;53959;53.626;11.410;2022-08-16T04:37:46;19.20;99.90
5138;DHT22;53959;53.626;11.410;2022-08-16T04:40:13;19.30;99.90
5138;DHT22;53959;53.626;11.410;2022-08-16T04:42:39;19.30;99.90
5138;DHT22;53959;53.626;11.410;2022-08-16T04:45:09;19.20;99.90
5138;DHT22;53959;53.626;11.410;2022-08-16T04:47:35;19.30;99.90
5138;DHT22;53959;53.626;11.410;2022-08-16T04:50:17;19.20;99.90
5138;DHT22;53959;53.626;11.410;2022-08-16T04:52:47;19.30;99.90
5138;DHT22;53959;53.626;11.410;2022-08-16T04:55:18;19.30;99.90
5138;DHT22;53959;53.626;11.410;2022-08-16T04:57:47;19.30;99.90
5138;DHT22;53959;53.626;11.410;2022-08-16T05:00:18;19.30;99.90
5138;DHT22;53959;53.626;11.410;2022-08-16T05:02:45;19.30;99.90
5138;DHT22;53959;53.626;11.410;2022-08-16T05:05:12;19.30;99.90
5138;DHT22;53959;53.626;11.410;2022-08-16T05:07:39;19.30;99.90
5138;DHT22;53959;53.626;11.410;2022-08-16T05:10:07;19.30;99.90
5138;DHT22;53959;53.626;11.410;2022-08-16T05:12:33;19.30;99.90
5138;DHT22;53959;53.626;11.410;2022-08-16T05:14:59;19.40;99.90
5138;DHT22;53959;53.626;11.410;2022-08-16T05:17:24;19.30;99.90
5138;DHT22;53959;53.626;11.410;2022-08-16T05:19:50;19.40;99.90
5138;DHT22;53959;53.626;11.410;2022-08-16T05:22:16;19.40;99.90
5138;DHT22;53959;53.626;11.410;2022-08-16T05:24:42;19.40;99.90
5138;DHT22;53959;53.626;11.410;2022-08-16T05:27:08;19.40;99.90
5138;DHT22;53959;53.626;11.410;2022-08-16T05:29:34;19.40;99.90
5138;DHT22;53959;53.626;11.410;2022-08-16T05:31:59;19.50;99.90
5138;DHT22;53959;53.626;11.410;2022-08-16T05:34:26;19.40;99.90
5138;DHT22;53959;53.626;11.410;2022-08-16T05:36:52;19.50;99.90
5138;DHT22;53959;53.626;11.410;2022-08-16T05:39:22;19.50;99.90
5138;DHT22;53959;53.626;11.410;2022-08-16T05:41:48;19.40;99.90
5138;DHT22;53959;53.626;11.410;2022-08-16T05:44:15;19.50;99.90
5138;DHT22;53959;53.626;11.410;2022-08-16T05:46:41;19.60;99.90
5138;DHT22;53959;53.626;11.410;2022-08-16T05:49:10;19.60;99.90
5138;DHT22;53959;53.626;11.410;2022-08-16T05:51:38;19.50;99.90
5138;DHT22;53959;53.626;11.410;2022-08-16T05:54:04;19.60;99.90
5138;DHT22;53959;53.626;11.410;2022-08-16T05:56:30;19.60;99.90
5138;DHT22;53959;53.626;11.410;2022-08-16T05:58:56;19.70;99.90
5138;DHT22;53959;53.626;11.410;2022-08-16T06:01:21;19.60;99.90
5138;DHT22;53959;53.626;11.410;2022-08-16T06:03:47;19.70;99.90
5138;DHT22;53959;53.626;11.410;2022-08-16T06:06:12;19.80;99.90
5138;DHT22;53959;53.626;11.410;2022-08-16T06:08:38;19.70;99.90
5138;DHT22;53959;53.626;11.410;2022-08-16T06:11:04;19.80;99.90
5138;DHT22;53959;53.626;11.410;2022-08-16T06:13:29;19.80;99.90
5138;DHT22;53959;53.626;11.410;2022-08-16T06:15:56;19.70;99.90
5138;DHT22;53959;53.626;11.410;2022-08-16T06:18:21;19.70;99.90
5138;DHT22;53959;53.626;11.410;2022-08-16T06:20:47;19.70;99.90
5138;DHT22;53959;53.626;11.410;2022-08-16T06:23:12;19.80;99.90
5138;DHT22;53959;53.626;11.410;2022-08-16T06:25:38;19.80;99.90
5138;DHT22;53959;53.626;11.410;2022-08-16T06:28:04;19.90;99.90
5138;DHT22;53959;53.626;11.410;2022-08-16T06:30:30;20.00;99.90
5138;DHT22;53959;53.626;11.410;2022-08-16T06:32:56;19.80;99.90
5138;DHT22;53959;53.626;11.410;2022-08-16T06:35:22;20.00;99.90
5138;DHT22;53959;53.626;11.410;2022-08-16T06:37:48;20.00;99.90
5138;DHT22;53959;53.626;11.410;2022-08-16T06:40:14;20.10;99.90
5138;DHT22;53959;53.626;11.410;2022-08-16T06:42:39;20.20;99.90
5138;DHT22;53959;53.626;11.410;2022-08-16T06:45:06;20.30;99.90
5138;DHT22;53959;53.626;11.410;2022-08-16T06:47:31;20.20;99.90
5138;DHT22;53959;53.626;11.410;2022-08-16T06:49:57;20.20;99.90
5138;DHT22;53959;53.626;11.410;2022-08-16T06:52:22;20.30;99.90
5138;DHT22;53959;53.626;11.410;2022-08-16T06:54:48;20.30;99.90
5138;DHT22;53959;53.626;11.410;2022-08-16T06:57:14;20.30;99.90
5138;DHT22;53959;53.626;11.410;2022-08-16T06:59:41;20.40;99.90
5138;DHT22;53959;53.626;11.410;2022-08-16T07:02:07;20.50;99.90
5138;DHT22;53959;53.626;11.410;2022-08-16T07:04:32;20.70;99.90
5138;DHT22;53959;53.626;11.410;2022-08-16T07:06:58;20.70;99.90
5138;DHT22;53959;53.626;11.410;2022-08-16T07:09:23;20.80;99.90
5138;DHT22;53959;53.626;11.410;2022-08-16T07:11:49;21.00;99.90
5138;DHT22;53959;53.626;11.410;2022-08-16T07:14:15;21.10;99.90
5138;DHT22;53959;53.626;11.410;2022-08-16T07:16:40;20.90;99.90
5138;DHT22;53959;53.626;11.410;2022-08-16T07:19:07;20.90;99.90
5138;DHT22;53959;53.626;11.410;2022-08-16T07:21:33;21.10;99.90
5138;DHT22;53959;53.626;11.410;2022-08-16T07:24:01;21.40;99.90
5138;DHT22;53959;53.626;11.410;2022-08-16T07:26:28;21.40;99.90
5138;DHT22;53959;53.626;11.410;2022-08-16T07:28:53;21.40;99.90
5138;DHT22;53959;53.626;11.410;2022-08-16T07:31:19;21.60;99.90
5138;DHT22;53959;53.626;11.410;2022-08-16T07:33:45;21.60;99.90
5138;DHT22;53959;53.626;11.410;2022-08-16T07:36:12;21.60;99.90
5138;DHT22;53959;53.626;11.410;2022-08-16T07:38:38;21.50;99.90
5138;DHT22;53959;53.626;11.410;2022-08-16T07:41:04;21.70;99.90
5138;DHT22;53959;53.626;11.410;2022-08-16T07:43:31;21.70;99.90
5138;DHT22;53959;53.626;11.410;2022-08-16T07:45:56;21.90;99.90
5138;DHT22;53959;53.626;11.410;2022-08-16T07:48:24;21.80;99.90
5138;DHT22;53959;53.626;11.410;2022-08-16T07:50:49;21.70;99.90
5138;DHT22;53959;53.626;11.410;2022-08-16T07:53:15;21.60;99.90
5138;DHT22;53959;53.626;11.410;2022-08-16T07:55:41;21.80;99.90
5138;DHT22;53959;53.626;11.410;2022-08-16T07:58:06;22.00;99.90
5138;DHT22;53959;53.626;11.410;2022-08-16T08:00:33;22.20;99.90
5138;DHT22;53959;53.626;11.410;2022-08-16T08:02:58;22.60;99.90
5138;DHT22;53959;53.626;11.410;2022-08-16T08:05:25;22.70;99.90
5138;DHT22;53959;53.626;11.410;2022-08-16T08:07:51;22.70;99.90
5138;DHT22;53959;53.626;11.410;2022-08-16T08:10:18;22.70;99.90
5138;DHT22;53959;53.626;11.410;2022-08-16T08:12:46;22.80;99.90
5138;DHT22;53959;53.626;11.410;2022-08-16T08:15:12;23.40;99.90
5138;DHT22;53959;53.626;11.410;2022-08-16T08:17:39;23.40;99.90
5138;DHT22;53959;53.626;11.410;2022-08-16T08:20:07;23.10;99.90
5138;DHT22;53959;53.626;11.410;2022-08-16T08:22:33;23.50;99.90
5138;DHT22;53959;53.626;11.410;2022-08-16T08:24:59;23.20;99.90
5138;DHT22;53959;53.626;11.410;2022-08-16T08:27:25;23.10;99.90
5138;DHT22;53959;53.626;11.410;2022-08-16T08:29:51;23.30;99.90
5138;DHT22;53959;53.626;11.410;2022-08-16T08:32:17;23.40;99.90
5138;DHT22;53959;53.626;11.410;2022-08-16T08:34:46;23.70;99.90
5138;DHT22;53959;53.626;11.410;2022-08-16T08:37:11;23.90;99.90
5138;DHT22;53959;53.626;11.410;2022-08-16T08:39:37;23.90;99.90
5138;DHT22;53959;53.626;11.410;2022-08-16T08:42:04;23.50;99.90
5138;DHT22;53959;53.626;11.410;2022-08-16T08:44:30;23.70;99.90
5138;DHT22;53959;53.626;11.410;2022-08-16T08:46:57;24.10;99.90
5138;DHT22;53959;53.626;11.410;2022-08-16T08:49:23;24.00;99.90
5138;DHT22;53959;53.626;11.410;2022-08-16T08:51:49;24.30;99.90
5138;DHT22;53959;53.626;11.410;2022-08-16T08:54:14;24.40;99.90
5138;DHT22;53959;53.626;11.410;2022-08-16T08:56:40;25.10;99.90
5138;DHT22;53959;53.626;11.410;2022-08-16T08:59:06;25.00;99.90
5138;DHT22;53959;53.626;11.410;2022-08-16T09:01:34;25.30;99.90
5138;DHT22;53959;53.626;11.410;2022-08-16T09:04:00;25.00;99.90
5138;DHT22;53959;53.626;11.410;2022-08-16T09:06:29;25.40;99.90
5138;DHT22;53959;53.626;11.410;2022-08-16T09:08:57;25.80;99.90
5138;DHT22;53959;53.626;11.410;2022-08-16T09:11:24;25.90;99.90
5138;DHT22;53959;53.626;11.410;2022-08-16T09:13:50;26.40;99.90
5138;DHT22;53959;53.626;11.410;2022-08-16T09:16:15;26.20;99.90
5138;DHT22;53959;53.626;11.410;2022-08-16T09:18:42;26.10;99.90
5138;DHT22;53959;53.626;11.410;2022-08-16T09:21:08;25.90;99.90
5138;DHT22;53959;53.626;11.410;2022-08-16T09:23:34;25.50;99.90
5138;DHT22;53959;53.626;11.410;2022-08-16T09:26:01;25.20;99.90
5138;DHT22;53959;53.626;11.410;2022-08-16T09:28:26;25.40;99.90
5138;DHT22;53959;53.626;11.410;2022-08-16T09:30:53;25.60;99.90
5138;DHT22;53959;53.626;11.410;2022-08-16T09:33:19;25.40;99.90
5138;DHT22;53959;53.626;11.410;2022-08-16T09:35:46;25.40;99.90
5138;DHT22;53959;53.626;11.410;2022-08-16T09:38:12;25.40;99.90
5138;DHT22;53959;53.626;11.410;2022-08-16T09:40:39;25.50;99.90
5138;DHT22;53959;53.626;11.410;2022-08-16T09:43:07;25.50;99.90
5138;DHT22;53959;53.626;11.410;2022-08-16T09:45:32;25.90;1.00
5138;DHT22;53959;53.626;11.410;2022-08-16T09:48:04;25.40;1.00
5138;DHT22;53959;53.626;11.410;2022-08-16T09:50:30;25.50;99.90
5138;DHT22;53959;53.626;11.410;2022-08-16T09:52:56;25.80;99.90
5138;DHT22;53959;53.626;11.410;2022-08-16T09:55:22;25.80;1.00
5138;DHT22;53959;53.626;11.410;2022-08-16T09:57:47;25.80;15.20
5138;DHT22;53959;53.626;11.410;2022-08-16T10:00:13;26.10;1.00
5138;DHT22;53959;53.626;11.410;2022-08-16T10:02:38;26.00;1.00
5138;DHT22;53959;53.626;11.410;2022-08-16T10:05:07;26.40;1.00
5138;DHT22;53959;53.626;11.410;2022-08-16T10:07:33;26.90;99.90
5138;DHT22;53959;53.626;11.410;2022-08-16T10:09:58;26.40;99.90
5138;DHT22;53959;53.626;11.410;2022-08-16T10:12:25;26.50;99.90
5138;DHT22;53959;53.626;11.410;2022-08-16T10:15:17;26.10;99.90
5138;DHT22;53959;53.626;11.410;2022-08-16T10:17:46;26.10;99.90
5138;DHT22;53959;53.626;11.410;2022-08-16T10:20:12;26.00;99.90
5138;DHT22;53959;53.626;11.410;2022-08-16T10:22:39;26.10;99.90
5138;DHT22;53959;53.626;11.410;2022-08-16T10:25:05;26.00;99.90
5138;DHT22;53959;53.626;11.410;2022-08-16T10:27:31;26.30;99.90
5138;DHT22;53959;53.626;11.410;2022-08-16T10:29:58;26.40;9.50
5138;DHT22;53959;53.626;11.410;2022-08-16T10:32:23;26.00;1.00
5138;DHT22;53959;53.626;11.410;2022-08-16T10:34:49;25.80;1.00
5138;DHT22;53959;53.626;11.410;2022-08-16T10:37:14;25.60;99.90
5138;DHT22;53959;53.626;11.410;2022-08-16T10:39:40;26.00;99.90
5138;DHT22;53959;53.626;11.410;2022-08-16T10:42:06;26.30;95.70
5138;DHT22;53959;53.626;11.410;2022-08-16T10:44:32;25.90;99.90
5138;DHT22;53959;53.626;11.410;2022-08-16T10:46:58;25.90;1.00
5138;DHT22;53959;53.626;11.410;2022-08-16T10:49:23;26.00;99.90
5138;DHT22;53959;53.626;11.410;2022-08-16T10:51:49;26.10;96.30
5138;DHT22;53959;53.626;11.410;2022-08-16T10:54:14;25.90;99.90
5138;DHT22;53959;53.626;11.410;2022-08-16T10:56:41;25.60;99.90
5138;DHT22;53959;53.626;11.410;2022-08-16T10:59:08;25.90;1.00
5138;DHT22;53959;53.626;11.410;2022-08-16T11:01:34;26.20;1.00
5138;DHT22;53959;53.626;11.410;2022-08-16T11:03:59;26.40;99.90
5138;DHT22;53959;53.626;11.410;2022-08-16T11:06:26;26.40;99.90
5138;DHT22;53959;53.626;11.410;2022-08-16T11:08:52;26.30;99.90
5138;DHT22;53959;53.626;11.410;2022-08-16T11:11:17;26.50;99.90
5138;DHT22;53959;53.626;11.410;2022-08-16T11:13:43;26.50;99.90
5138;DHT22;53959;53.626;11.410;2022-08-16T11:16:10;26.40;99.90
5138;DHT22;53959;53.626;11.410;2022-08-16T11:18:36;26.60;1.00
5138;DHT22;53959;53.626;11.410;2022-08-16T11:21:02;26.50;99.90
5138;DHT22;53959;53.626;11.410;2022-08-16T11:23:28;26.60;99.90
5138;DHT22;53959;53.626;11.410;2022-08-16T11:25:54;26.50;99.90
5138;DHT22;53959;53.626;11.410;2022-08-16T11:28:21;26.60;99.90
5138;DHT22;53959;53.626;11.410;2022-08-16T11:30:47;26.20;99.90
5138;DHT22;53959;53.626;11.410;2022-08-16T11:33:13;26.50;99.90
5138;DHT22;53959;53.626;11.410;2022-08-16T11:35:39;27.00;99.90
5138;DHT22;53959;53.626;11.410;2022-08-16T11:38:08;26.90;99.90
5138;DHT22;53959;53.626;11.410;2022-08-16T11:40:48;26.90;99.90
5138;DHT22;53959;53.626;11.410;2022-08-16T11:43:17;26.90;99.90
5138;DHT22;53959;53.626;11.410;2022-08-16T11:45:48;26.80;38.60
5138;DHT22;53959;53.626;11.410;2022-08-16T11:48:14;26.80;1.00
5138;DHT22;53959;53.626;11.410;2022-08-16T11:50:41;26.80;99.90
5138;DHT22;53959;53.626;11.410;2022-08-16T11:53:07;27.10;99.90
5138;DHT22;53959;53.626;11.410;2022-08-16T11:55:34;27.20;96.90
5138;DHT22;53959;53.626;11.410;2022-08-16T11:58:01;27.30;47.50
5138;DHT22;53959;53.626;11.410;2022-08-16T12:00:27;27.30;1.00
5138;DHT22;53959;53.626;11.410;2022-08-16T12:02:54;27.60;1.00
5138;DHT22;53959;53.626;11.410;2022-08-16T12:05:20;27.00;1.00
5138;DHT22;53959;53.626;11.410;2022-08-16T12:07:46;27.00;31.90
5138;DHT22;53959;53.626;11.410;2022-08-16T12:10:15;27.20;41.00
5138;DHT22;53959;53.626;11.410;2022-08-16T12:12:42;27.30;1.00
5138;DHT22;53959;53.626;11.410;2022-08-16T12:15:08;27.70;1.00
5138;DHT22;53959;53.626;11.410;2022-08-16T12:17:34;27.90;1.00
5138;DHT22;53959;53.626;11.410;2022-08-16T12:20:02;27.90;99.90
5138;DHT22;53959;53.626;11.410;2022-08-16T12:22:29;28.10;99.90
5138;DHT22;53959;53.626;11.410;2022-08-16T12:24:55;28.10;99.90
5138;DHT22;53959;53.626;11.410;2022-08-16T12:27:23;28.00;99.90
5138;DHT22;53959;53.626;11.410;2022-08-16T12:29:50;28.00;99.90
5138;DHT22;53959;53.626;11.410;2022-08-16T12:32:16;27.40;99.90
5138;DHT22;53959;53.626;11.410;2022-08-16T12:34:42;27.50;99.90
5138;DHT22;53959;53.626;11.410;2022-08-16T12:37:08;27.70;99.90
5138;DHT22;53959;53.626;11.410;2022-08-16T12:39:33;28.20;99.90
5138;DHT22;53959;53.626;11.410;2022-08-16T12:41:59;27.80;99.90
5138;DHT22;53959;53.626;11.410;2022-08-16T12:44:25;27.50;99.90
5138;DHT22;53959;53.626;11.410;2022-08-16T12:46:51;27.60;99.90
5138;DHT22;53959;53.626;11.410;2022-08-16T12:49:35;27.60;99.90
5138;DHT22;53959;53.626;11.410;2022-08-16T12:52:01;28.00;99.90
5138;DHT22;53959;53.626;11.410;2022-08-16T12:54:27;28.50;99.90
5138;DHT22;53959;53.626;11.410;2022-08-16T12:56:52;28.70;99.90
5138;DHT22;53959;53.626;11.410;2022-08-16T12:59:18;28.90;99.90
5138;DHT22;53959;53.626;11.410;2022-08-16T13:01:44;28.30;32.20
5138;DHT22;53959;53.626;11.410;2022-08-16T13:04:12;28.70;60.10
5138;DHT22;53959;53.626;11.410;2022-08-16T13:06:39;28.90;15.50
5138;DHT22;53959;53.626;11.410;2022-08-16T13:09:06;29.40;1.00
5138;DHT22;53959;53.626;11.410;2022-08-16T13:11:49;29.70;1.00
5138;DHT22;53959;53.626;11.410;2022-08-16T13:14:28;29.80;1.00
5138;DHT22;53959;53.626;11.410;2022-08-16T13:16:54;29.20;1.00
5138;DHT22;53959;53.626;11.410;2022-08-16T13:19:20;29.30;1.00
5138;DHT22;53959;53.626;11.410;2022-08-16T13:21:45;29.40;1.00
5138;DHT22;53959;53.626;11.410;2022-08-16T13:24:11;29.70;1.00
5138;DHT22;53959;53.626;11.410;2022-08-16T13:26:36;29.40;1.00
5138;DHT22;53959;53.626;11.410;2022-08-16T13:29:02;28.20;1.00
5138;DHT22;53959;53.626;11.410;2022-08-16T13:31:27;28.00;1.00
5138;DHT22;53959;53.626;11.410;2022-08-16T13:33:53;28.40;1.00
5138;DHT22;53959;53.626;11.410;2022-08-16T13:36:18;28.70;1.00
5138;DHT22;53959;53.626;11.410;2022-08-16T13:38:44;29.10;1.00
5138;DHT22;53959;53.626;11.410;2022-08-16T13:41:10;28.90;1.00
5138;DHT22;53959;53.626;11.410;2022-08-16T13:43:37;29.10;1.00
5138;DHT22;53959;53.626;11.410;2022-08-16T13:46:03;28.90;1.00
5138;DHT22;53959;53.626;11.410;2022-08-16T13:48:29;28.70;1.00
5138;DHT22;53959;53.626;11.410;2022-08-16T13:50:56;28.90;1.00
5138;DHT22;53959;53.626;11.410;2022-08-16T13:53:23;28.90;1.00
5138;DHT22;53959;53.626;11.410;2022-08-16T13:55:49;28.70;1.00
5138;DHT22;53959;53.626;11.410;2022-08-16T13:58:15;28.50;1.00
5138;DHT22;53959;53.626;11.410;2022-08-16T14:00:40;28.40;1.00
5138;DHT22;53959;53.626;11.410;2022-08-16T14:03:09;28.40;1.00
5138;DHT22;53959;53.626;11.410;2022-08-16T14:05:35;28.40;1.00
5138;DHT22;53959;53.626;11.410;2022-08-16T14:08:00;28.10;1.00
5138;DHT22;53959;53.626;11.410;2022-08-16T14:10:26;27.90;1.00
5138;DHT22;53959;53.626;11.410;2022-08-16T14:12:51;27.70;1.00
5138;DHT22;53959;53.626;11.410;2022-08-16T14:15:18;28.00;19.00
5138;DHT22;53959;53.626;11.410;2022-08-16T14:17:45;27.90;1.00
5138;DHT22;53959;53.626;11.410;2022-08-16T14:20:11;28.00;1.00
5138;DHT22;53959;53.626;11.410;2022-08-16T14:22:39;28.00;1.00
5138;DHT22;53959;53.626;11.410;2022-08-16T14:25:09;28.30;1.00
5138;DHT22;53959;53.626;11.410;2022-08-16T14:27:35;28.50;1.00
5138;DHT22;53959;53.626;11.410;2022-08-16T14:30:02;28.40;1.00
5138;DHT22;53959;53.626;11.410;2022-08-16T14:32:29;28.20;1.00
5138;DHT22;53959;53.626;11.410;2022-08-16T14:34:56;28.70;1.00
5138;DHT22;53959;53.626;11.410;2022-08-16T14:37:23;28.20;1.00
5138;DHT22;53959;53.626;11.410;2022-08-16T14:39:48;28.40;1.00
5138;DHT22;53959;53.626;11.410;2022-08-16T14:42:17;28.10;1.00
5138;DHT22;53959;53.626;11.410;2022-08-16T14:44:44;27.90;1.00
5138;DHT22;53959;53.626;11.410;2022-08-16T14:47:10;28.00;1.00
5138;DHT22;53959;53.626;11.410;2022-08-16T14:49:36;28.20;1.00
5138;DHT22;53959;53.626;11.410;2022-08-16T14:52:07;27.90;1.00
5138;DHT22;53959;53.626;11.410;2022-08-16T14:54:33;27.90;1.00
5138;DHT22;53959;53.626;11.410;2022-08-16T14:56:59;28.10;1.00
5138;DHT22;53959;53.626;11.410;2022-08-16T14:59:25;28.20;1.00
5138;DHT22;53959;53.626;11.410;2022-08-16T15:01:52;28.50;1.00
5138;DHT22;53959;53.626;11.410;2022-08-16T15:04:19;28.40;1.00
5138;DHT22;53959;53.626;11.410;2022-08-16T15:06:44;28.30;1.00
5138;DHT22;53959;53.626;11.410;2022-08-16T15:09:10;28.10;1.00
5138;DHT22;53959;53.626;11.410;2022-08-16T15:11:36;27.70;1.00
5138;DHT22;53959;53.626;11.410;2022-08-16T15:14:02;27.50;1.00
5138;DHT22;53959;53.626;11.410;2022-08-16T15:16:27;27.60;1.00
5138;DHT22;53959;53.626;11.410;2022-08-16T15:18:53;27.70;1.00
5138;DHT22;53959;53.626;11.410;2022-08-16T15:21:18;27.20;1.00
5138;DHT22;53959;53.626;11.410;2022-08-16T15:23:44;26.90;19.60
5138;DHT22;53959;53.626;11.410;2022-08-16T15:26:10;26.60;99.90
5138;DHT22;53959;53.626;11.410;2022-08-16T15:28:36;26.70;99.90
5138;DHT22;53959;53.626;11.410;2022-08-16T15:31:04;26.70;99.90
5138;DHT22;53959;53.626;11.410;2022-08-16T15:33:34;26.80;99.90